• Join FlightAware (Why Join?)
  • Login
  • US Flag 
11:22AM EDT


 

Airport Tracker/Info


-or-


 

Live Flight TrackerFlight Track Log ✈ FIV556 ✈ 24-Apr-2012 ✈ KAPA - KLAS

Flight Track Log - Related Links

Times and Time Zones

All times are in EDT time to prevent confusion due to time zone crossing. See the FIV556 flight status page for this flight to view local times or setup timezone preferences in your user account.

Time Position Orientation Groundspeed Altitude Reporting Facility
EDT Latitude Longitude Course Direction KTS MPH feet Rate Location/Type
05:40PM 39.6000 -104.8667 311° West 175 201 7,000  Level Denver TRACON
05:40PM 39.6333 -104.9167 285° West 209 241 9,200 1,680 Climbing Denver TRACON
05:43PM 39.6667 -105.0833 270° West 252 290 12,200 1,560 Climbing Denver TRACON
05:44PM 39.6667 -105.1833 255° West 279 321 14,200 2,100 Climbing Denver TRACON
05:45PM 39.6458 -105.2867 247° West 285 328 16,700 2,220 Climbing Denver Center
05:46PM 39.6117 -105.3925 236° Southwest 296 341 18,900 2,040 Climbing Denver Center
05:47PM 39.5625 -105.4875 251° West 314 361 20,800 1,800 Climbing Denver Center
05:48PM 39.5319 -105.6036 252° West 327 376 22,500 1,740 Climbing Denver Center
05:49PM 39.5017 -105.7225 253° West 345 397 24,300 1,740 Climbing Denver Center
05:50PM 39.4731 -105.8439 252° West 355 409 26,000 1,680 Climbing Denver Center
05:51PM 39.4425 -105.9678 254° West 360 414 27,700 1,620 Climbing Denver Center
05:52PM 39.4136 -106.0942 253° West 360 414 29,300 1,500 Climbing Denver Center
05:53PM 39.3850 -106.2181 250° West 360 414 30,700 1,320 Climbing Denver Center
05:54PM 39.3497 -106.3442 249° West 366 421 32,000 1,320 Climbing Denver Center
05:55PM 39.3164 -106.4569 250° West 371 427 33,400 960 Climbing Denver Center
05:56PM 39.2767 -106.5967 247° West 381 438 34,000 300 Climbing Denver Center
05:57PM 39.2347 -106.7253 233° Southwest 386 444 34,000  Level Denver Center
05:58PM 39.1697 -106.8375 232° Southwest 391 450 34,000  Level Denver Center
05:59PM 39.1089 -106.9361 231° Southwest 398 458 34,000  Level Denver Center
06:00PM 39.0311 -107.0611 231° Southwest 406 467 34,000  Level Denver Center
06:01PM 38.9617 -107.1728 232° Southwest 406 467 34,000  Level Denver Center
06:02PM 38.8964 -107.2789 231° Southwest 401 461 34,000  Level Denver Center
06:03PM 38.8353 -107.3767 230° Southwest 396 456 34,000  Level Denver Center
06:04PM 38.7656 -107.4850 232° Southwest 396 456 34,000  Level Denver Center
06:05PM 38.6892 -107.6089 232° Southwest 396 456 34,000  Level Denver Center
06:06PM 38.6214 -107.7194 230° Southwest 402 463 34,000  Level Denver Center
06:07PM 38.5578 -107.8164 231° Southwest 402 463 34,000  Level Denver Center
06:08PM 38.4897 -107.9239 230° Southwest 397 457 34,000  Level Denver Center
06:09PM 38.4131 -108.0389 229° Southwest 397 457 34,000  Level Denver Center
06:10PM 38.3428 -108.1431 230° Southwest 397 457 34,000  Level Denver Center
06:11PM 38.2789 -108.2394 230° Southwest 397 457 34,000  Level Denver Center
06:12PM 38.2083 -108.3461 229° Southwest 397 457 34,000  Level Denver Center
06:13PM 38.1272 -108.4653 229° Southwest 405 466 34,000  Level Denver Center
06:14PM 38.0714 -108.5481 231° Southwest 398 458 34,000  Level Denver Center
06:15PM 37.9942 -108.6697 229° Southwest 398 458 34,000  Level Denver Center
06:16PM 37.9147 -108.7856 229° Southwest 398 458 34,000  Level Denver Center
06:17PM 37.8417 -108.8911 241° Southwest 398 458 34,000  Level Denver Center
06:18PM 37.7956 -108.9972 253° West 398 458 34,000  Level Denver Center
06:19PM 37.7631 -109.1325 252° West 374 430 34,000  Level Denver Center
06:20PM 37.7311 -109.2547 253° West 374 430 34,000  Level Denver Center
06:21PM 37.7008 -109.3819 252° West 374 430 34,000  Level Denver Center
06:22PM 37.6728 -109.4936 252° West 379 436 34,000  Level Denver Center
06:23PM 37.6381 -109.6258 252° West 379 436 34,000  Level Denver Center
06:24PM 37.6050 -109.7556 252° West 379 436 34,000  Level Denver Center
06:25PM 37.5744 -109.8744 252° West 379 436 34,000  Level Denver Center
06:26PM 37.5461 -109.9831 253° West 374 430 34,000  Level Denver Center
06:27PM 37.5125 -110.1228 251° West 374 430 34,000  Level Denver Center
06:28PM 37.4867 -110.2183 250° West 372 428 34,000  Level Denver Center
06:29PM 37.4511 -110.3444 251° West 361 415 34,000  Level Denver Center
06:30PM 37.4178 -110.4656 253° West 361 415 34,000  Level Denver Center
06:31PM 37.3883 -110.5842 252° West 361 415 34,000 -60 Level Denver Center
06:32PM 37.3569 -110.7050 251° West 361 415 33,900 -720 Descending Denver Center
06:33PM 37.3206 -110.8386 252° West 361 415 32,600 -960 Descending Denver Center
06:34PM 37.2886 -110.9594 251° West 366 421 32,000 -300 Descending Denver Center
06:35PM 37.2547 -111.0825 253° West 366 421 32,000  Level Denver Center
06:36PM 37.2244 -111.2056 252° West 371 427 32,000  Level Denver Center
06:38PM 37.1503 -111.4931 254° West 380 437 32,000  Level Los Angeles Center
06:39PM 37.1217 -111.6172 254° West 385 443 32,000  Level Los Angeles Center
06:40PM 37.0928 -111.7411 253° West 385 443 32,000  Level Los Angeles Center
06:41PM 37.0617 -111.8650 253° West 380 437 32,000 -420 Level Los Angeles Center
06:42PM 37.0286 -111.9969 253° West 374 430 31,200 -1,560 Descending Los Angeles Center
06:43PM 36.9975 -112.1208 254° West 369 425 28,900 -2,460 Descending Los Angeles Center
06:44PM 36.9700 -112.2442 251° West 369 425 26,300 -2,400 Descending Los Angeles Center
06:45PM 36.9364 -112.3681 254° West 369 425 24,100 -1,200 Descending Los Angeles Center
06:46PM 36.9125 -112.4706 252° West 374 430 24,000 -60 Descending Los Angeles Center
06:47PM 36.8767 -112.6044 254° West 374 430 24,000  Level Los Angeles Center
06:48PM 36.8469 -112.7328 252° West 379 436 24,000  Level Los Angeles Center
06:49PM 36.8150 -112.8589 252° West 384 442 24,000  Level Los Angeles Center
06:50PM 36.7828 -112.9844 252° West 384 442 24,000  Level Los Angeles Center
06:51PM 36.7467 -113.1233 252° West 384 442 24,000  Level Los Angeles Center
06:52PM 36.7142 -113.2489 254° West 384 442 24,000 -720 Level Los Angeles Center
06:53PM 36.6858 -113.3717 251° West 384 442 22,600 -1,440 Descending Los Angeles Center
06:54PM 36.6531 -113.4917 253° West 378 435 21,200 -1,380 Descending Los Angeles Center
06:55PM 36.6222 -113.6169 253° West 378 435 19,900 -1,080 Descending Los Angeles Center
06:56PM 36.5953 -113.7264 251° West 378 435 19,100 -1,020 Descending Los Angeles Center
06:57PM 36.5619 -113.8464 252° West 378 435 17,900 -1,140 Descending Los Angeles Center
06:58PM 36.5328 -113.9583 252° West 360 414 16,900 -1,020 Descending Los Angeles Center
06:59PM 36.5014 -114.0756 249° West 360 414 15,900 -1,080 Descending Los Angeles Center
07:00PM 36.4736 -114.1639 256° West 353 406 15,100 -1,200 Descending Los Angeles Center
07:01PM 36.4486 -114.2883 251° West 351 404 13,900 -1,320 Descending Los Angeles Center
07:02PM 36.4128 -114.4158 240° Southwest 350 403 12,100 -1,080 Descending Los Angeles Center
07:03PM 36.3703 -114.5069 238° Southwest 329 379 11,500 -1,200 Descending Los Angeles Center
07:04PM 36.3294 -114.5875 237° Southwest 300 345 9,800 -1,500 Descending Los Angeles Center
07:05PM 36.2889 -114.6656 235° Southwest 288 331 8,600 -1,320 Descending Los Angeles Center
07:06PM 36.2458 -114.7411 239° Southwest 265 305 7,400 -900 Descending Los Angeles Center
07:07PM 36.2111 -114.8139 236° Southwest 233 268 7,000 -720 Descending Los Angeles Center
07:08PM 36.1806 -114.8708 234° Southwest 190 219 6,000 -900 Descending Los Angeles Center
07:09PM 36.1519 -114.9203 248° West 180 207 5,200 -660 Descending Los Angeles Center
07:10PM 36.1317 -114.9822 273° West 195 224 4,700 -780 Descending Los Angeles Center
07:11PM 36.1342 -115.0439 273° West 187 215 3,700 -600 Descending Los Angeles Center
07:12PM 36.1367 -115.1031 243° Southwest 192 221 3,500 -600 Descending Los Angeles Center
07:13PM 36.1206 -115.1417 204° Southwest 173 199 2,600 -720 Descending Los Angeles Center
07:14PM 36.0914 -115.1575 226° Southwest 128 147 2,100 -300 Descending Los Angeles Center
07:15PM 36.0853 -115.1653 46° Northeast 87 100 2,100  Level Los Angeles Center
07:16PM 36.0872 -115.1628 229° Southwest 59 68 2,100 10,920 Level Los Angeles Center
07:17PM 36.0708 -115.1861 224° Southwest 59 68 24,000 10,920 Climbing Los Angeles Center
07:18PM 36.0603 -115.1989 226° Southwest 59 68 24,000  Level Los Angeles Center
07:19PM 36.0500 -115.2119 226° Southwest 59 68 24,000  Level Los Angeles Center